Time;durP1;ratioP1;P1;durP2;ratioP2;P2;SDS_P1;SDS_P2;PMS_P1;PMS_P2;Temp;Humidity;BMP_temperature;BMP_pressure;BME280_temperature;BME280_humidity;BME280_pressure;Samples;Min_cycle;Max_cycle;Signal;HPM_P1;HPM_P2
2024/02/09 00:00:56;;;;;;;;;;;;;;;7.56;62.57;99922.42;106525;1253;68384;-87
2024/02/09 00:03:25;;;;;;;;;;;;;;;7.51;62.92;99924.98;106653;1254;72668;-87
2024/02/09 00:05:58;;;;;;;;;;;;;;;7.55;62.80;99927.00;106441;1254;61379;-88
2024/02/09 00:08:27;;;;;;;;;;;;;;;7.78;61.89;99921.48;106529;1253;61458;-86
2024/02/09 00:10:55;;;;;;;;;;;;;;;7.68;62.30;99915.56;106554;1253;73364;-87
2024/02/09 00:13:30;;;;;;;;;;;;;;;7.91;61.82;99909.33;106347;1253;67111;-88
2024/02/09 00:16:04;;;;;;;;;;;;;;;7.88;61.45;99908.69;107484;1254;71454;-87
2024/02/09 00:18:32;;;;;;;;;;;;;;;8.02;60.88;99910.94;106521;1253;61357;-85
2024/02/09 00:21:00;;;;;;;;;;;;;;;8.06;60.91;99908.75;106685;1252;61181;-88
2024/02/09 00:23:32;;;;;;;;;;;;;;;8.13;60.47;99910.31;106349;1253;72968;-87
2024/02/09 00:26:00;;;;;;;;;;;;;;;8.01;60.75;99911.11;106451;1257;67723;-85
2024/02/09 00:28:30;;;;;;;;;;;;;;;7.75;62.10;99913.33;106662;1253;73217;-85
2024/02/09 00:31:04;;;;;;;;;;;;;;;7.83;62.18;99910.98;106527;1256;61184;-87
2024/02/09 00:33:31;;;;;;;;;;;;;;;7.84;62.18;99908.98;106583;1253;61365;-86
2024/02/09 00:35:59;;;;;;;;;;;;;;;7.99;61.76;99903.01;106333;1254;74603;-85
2024/02/09 00:38:32;;;;;;;;;;;;;;;8.03;61.40;99898.54;106507;1253;67835;-87
2024/02/09 00:41:05;;;;;;;;;;;;;;;7.93;61.94;99891.20;106758;1256;71787;-87
2024/02/09 00:43:33;;;;;;;;;;;;;;;7.79;62.53;99881.06;106615;1257;61317;-87
2024/02/09 00:46:03;;;;;;;;;;;;;;;7.71;63.37;99874.83;106481;1252;61286;-86
2024/02/09 00:48:38;;;;;;;;;;;;;;;7.78;63.38;99872.80;106399;1253;73327;-86
2024/02/09 00:51:06;;;;;;;;;;;;;;;7.71;63.85;99865.25;106788;1253;68259;-86
2024/02/09 00:53:34;;;;;;;;;;;;;;;7.70;63.98;99866.08;106441;1252;72667;-87
2024/02/09 00:56:06;;;;;;;;;;;;;;;7.60;64.74;99869.61;106692;1252;61423;-87
2024/02/09 00:58:36;;;;;;;;;;;;;;;7.61;65.04;99867.66;106718;1256;61192;-87
2024/02/09 01:01:10;;;;;;;;;;;;;;;7.51;65.62;99864.18;106539;1252;74637;-87
2024/02/09 01:03:38;;;;;;;;;;;;;;;7.48;66.09;99859.41;107199;1252;68361;-86
2024/02/09 01:06:08;;;;;;;;;;;;;;;7.52;65.80;99856.19;106936;1253;72761;-87
2024/02/09 01:08:37;;;;;;;;;;;;;;;7.43;66.49;99853.70;106900;1253;61350;-86
2024/02/09 01:11:30;;;;;;;;;;;;;;;7.85;64.85;99850.42;106564;1257;61343;-88
2024/02/09 15:10:05;;;;;;;;;;;;;;;8.18;78.68;99714.80;106187;1262;75167;-85
2024/02/09 15:12:47;;;;;;;;;;;;;;;8.25;78.09;99718.02;106205;1259;70807;-85
2024/02/09 15:15:29;;;;;;;;;;;;;;;8.18;78.47;99718.83;106336;1259;74195;-86
2024/02/09 15:18:10;;;;;;;;;;;;;;;8.14;78.81;99715.73;106312;1259;60686;-85
2024/02/09 15:20:50;;;;;;;;;;;;;;;8.11;79.30;99723.59;106178;1257;60763;-86
2024/02/09 15:23:35;;;;;;;;;;;;;;;8.17;79.44;99729.22;107354;1258;73713;-86
2024/02/09 15:26:15;;;;;;;;;;;;;;;8.17;79.31;99728.52;106392;1260;68396;-85
2024/02/09 15:28:56;;;;;;;;;;;;;;;8.13;79.68;99722.50;106274;1259;73692;-85
2024/02/09 15:31:37;;;;;;;;;;;;;;;8.20;79.12;99725.34;106073;1259;62726;-86
2024/02/09 15:34:05;;;;;;;;;;;;;;;8.18;79.09;99724.91;106545;1258;60930;-86
2024/02/09 15:36:45;;;;;;;;;;;;;;;8.33;78.24;99738.55;106360;1257;74891;-86
2024/02/09 15:39:25;;;;;;;;;;;;;;;8.50;76.89;99738.95;106147;1259;70551;-87
2024/02/09 15:42:00;;;;;;;;;;;;;;;8.64;75.20;99742.23;106191;1259;73715;-86
2024/02/09 15:44:34;;;;;;;;;;;;;;;8.17;78.17;99751.10;106209;1257;60555;-85
2024/02/09 15:47:15;;;;;;;;;;;;;;;8.16;79.20;99752.91;105959;1258;60498;-86
2024/02/09 15:49:55;;;;;;;;;;;;;;;8.14;78.94;99753.85;106511;1257;75403;-87
2024/02/09 15:52:29;;;;;;;;;;;;;;;8.09;79.23;99760.98;106022;1257;70205;-86
2024/02/09 15:55:03;;;;;;;;;;;;;;;8.09;79.24;99758.48;106253;1259;74218;-84
2024/02/09 15:57:42;;;;;;;;;;;;;;;8.09;79.31;99755.72;106153;1259;63287;-86
2024/02/09 16:00:22;;;;;;;;;;;;;;;8.20;78.54;99759.14;106234;1258;61805;-86
2024/02/09 16:02:57;;;;;;;;;;;;;;;8.22;78.14;99761.80;106021;1257;76196;-87
2024/02/09 16:05:31;;;;;;;;;;;;;;;8.31;77.73;99760.55;106727;1262;70986;-87
2024/02/09 16:08:12;;;;;;;;;;;;;;;8.45;76.61;99760.77;106079;1259;74759;-87
2024/02/09 16:10:52;;;;;;;;;;;;;;;8.25;77.91;99757.27;105994;1259;60489;-88
2024/02/09 16:13:27;;;;;;;;;;;;;;;8.30;77.86;99755.21;105953;1263;60509;-85
2024/02/09 16:16:04;;;;;;;;;;;;;;;8.31;77.57;99759.14;106226;1259;75724;-87
2024/02/09 16:18:46;;;;;;;;;;;;;;;8.38;77.34;99769.57;106292;1256;69322;-88
2024/02/09 16:21:30;;;;;;;;;;;;;;;8.19;78.43;99772.38;106131;1256;73533;-85
2024/02/09 16:24:04;;;;;;;;;;;;;;;8.19;78.57;99758.23;106598;1259;61528;-86
2024/02/09 16:26:32;;;;;;;;;;;;;;;8.19;78.72;99760.06;106253;1261;60992;-85
2024/02/09 16:29:08;;;;;;;;;;;;;;;8.37;77.65;99764.29;106108;1256;76243;-88
2024/02/09 16:31:43;;;;;;;;;;;;;;;8.11;78.43;99765.06;106620;1256;68452;-84
2024/02/09 16:34:17;;;;;;;;;;;;;;;8.00;79.53;99768.44;105969;1259;73807;-85
2024/02/09 16:36:45;;;;;;;;;;;;;;;8.20;78.04;99760.83;106228;1259;60434;-85
2024/02/09 16:39:18;;;;;;;;;;;;;;;8.31;76.94;99761.05;106308;1256;62115;-84
2024/02/09 16:41:52;;;;;;;;;;;;;;;8.36;76.11;99765.54;106278;1256;74601;-88
2024/02/09 16:44:23;;;;;;;;;;;;;;;8.46;75.08;99780.54;106408;1256;70923;-88
2024/02/09 16:46:56;;;;;;;;;;;;;;;8.52;74.25;99780.72;106207;1260;74506;-88
2024/02/09 16:49:31;;;;;;;;;;;;;;;8.38;75.50;99778.70;106793;1262;60539;-87
2024/02/09 16:52:05;;;;;;;;;;;;;;;8.36;75.85;99778.33;106251;1256;60751;-83
2024/02/09 16:54:33;;;;;;;;;;;;;;;8.17;76.72;99777.01;106357;1256;75428;-83
2024/02/09 16:57:09;;;;;;;;;;;;;;;8.29;75.97;99776.89;106541;1256;70667;-86
2024/02/09 16:59:43;;;;;;;;;;;;;;;8.20;76.58;99778.70;106309;1259;71395;-85
2024/02/09 17:02:17;;;;;;;;;;;;;;;8.38;75.32;99788.30;106363;1256;60674;-82
2024/02/09 17:04:48;;;;;;;;;;;;;;;8.33;74.89;99793.27;106666;1261;60909;-82
2024/02/09 17:07:22;;;;;;;;;;;;;;;8.32;75.40;99796.70;106355;1256;75350;-86
2024/02/09 17:09:56;;;;;;;;;;;;;;;8.32;75.49;99801.10;106553;1256;69771;-83
2024/02/09 17:12:31;;;;;;;;;;;;;;;8.39;75.00;99807.58;106221;1259;73835;-84
2024/02/09 17:14:59;;;;;;;;;;;;;;;8.47;74.40;99815.82;107300;1260;61488;-86
2024/02/09 17:17:33;;;;;;;;;;;;;;;8.40;74.88;99820.02;107000;1260;61169;-83
2024/02/09 17:20:08;;;;;;;;;;;;;;;8.61;73.89;99828.20;106365;1256;75066;-83
2024/02/09 17:22:36;;;;;;;;;;;;;;;8.53;73.99;99829.27;106187;1262;70750;-83
2024/02/09 17:25:10;;;;;;;;;;;;;;;8.24;76.00;99837.62;106389;1257;73555;-85
2024/02/09 17:27:48;;;;;;;;;;;;;;;8.54;74.34;99837.94;106328;1260;61437;-85
2024/02/09 17:30:22;;;;;;;;;;;;;;;8.45;74.73;99840.71;106174;1256;61873;-85
2024/02/09 17:32:50;;;;;;;;;;;;;;;8.41;74.96;99843.28;106355;1256;74633;-86
2024/02/09 17:35:26;;;;;;;;;;;;;;;8.55;74.09;99840.98;106448;1257;69543;-84
2024/02/09 17:38:00;;;;;;;;;;;;;;;8.55;73.94;99843.15;106308;1256;73615;-84
2024/02/09 17:40:34;;;;;;;;;;;;;;;8.33;75.57;99845.98;106167;1262;61941;-84
2024/02/09 17:43:02;;;;;;;;;;;;;;;8.24;76.74;99843.94;106159;1256;61914;-83
2024/02/09 17:45:36;;;;;;;;;;;;;;;8.20;76.88;99836.66;106663;1255;75284;-85
2024/02/09 17:48:09;;;;;;;;;;;;;;;8.06;77.95;99833.23;106248;1256;70207;-84
2024/02/09 17:50:43;;;;;;;;;;;;;;;7.98;78.63;99834.88;106320;1256;73845;-84
2024/02/09 17:53:11;;;;;;;;;;;;;;;8.07;77.96;99834.70;106057;1257;63394;-86
2024/02/09 17:55:45;;;;;;;;;;;;;;;8.17;77.25;99838.03;106181;1256;61771;-87
2024/02/09 17:58:19;;;;;;;;;;;;;;;8.19;76.84;99837.31;106513;1260;75393;-87
2024/02/09 18:00:47;;;;;;;;;;;;;;;8.07;77.70;99841.98;106271;1260;68583;-85
2024/02/09 18:03:20;;;;;;;;;;;;;;;8.10;77.62;99846.44;106196;1259;74586;-87
2024/02/09 18:05:54;;;;;;;;;;;;;;;8.06;78.23;99846.77;106213;1259;61332;-86
2024/02/09 18:08:28;;;;;;;;;;;;;;;8.04;78.52;99853.15;106411;1256;61852;-85
2024/02/09 18:10:56;;;;;;;;;;;;;;;8.03;78.65;99850.48;106400;1256;75751;-85
2024/02/09 18:13:30;;;;;;;;;;;;;;;7.99;78.91;99849.42;106306;1260;68559;-87
2024/02/09 18:16:04;;;;;;;;;;;;;;;8.00;78.57;99846.48;106149;1262;74259;-84
2024/02/09 18:18:38;;;;;;;;;;;;;;;8.01;78.40;99841.62;105998;1256;60449;-87
2024/02/09 18:21:06;;;;;;;;;;;;;;;8.05;78.19;99838.46;106460;1255;61798;-88
2024/02/09 18:23:39;;;;;;;;;;;;;;;7.99;78.25;99836.02;106104;1260;76394;-86
2024/02/09 18:26:14;;;;;;;;;;;;;;;7.85;79.06;99830.41;106268;1256;71444;-87
2024/02/09 18:28:44;;;;;;;;;;;;;;;7.94;78.85;99832.08;106301;1256;75214;-85
2024/02/09 18:31:20;;;;;;;;;;;;;;;7.83;79.18;99827.31;106145;1256;61190;-88
2024/02/09 18:33:55;;;;;;;;;;;;;;;7.85;79.48;99831.39;106523;1256;62922;-85
2024/02/09 18:36:28;;;;;;;;;;;;;;;7.98;78.29;99841.09;106128;1257;73787;-87
2024/02/09 18:38:57;;;;;;;;;;;;;;;8.00;77.54;99837.16;106173;1256;71141;-84
2024/02/09 18:41:31;;;;;;;;;;;;;;;7.63;80.35;99837.75;106170;1256;72607;-84
2024/02/09 18:44:05;;;;;;;;;;;;;;;7.65;80.85;99835.89;106044;1256;60361;-82
2024/02/09 18:46:38;;;;;;;;;;;;;;;7.62;80.19;99837.63;106395;1256;60329;-83
2024/02/09 18:49:06;;;;;;;;;;;;;;;7.52;81.24;99838.02;106171;1258;74211;-83
2024/02/09 18:51:40;;;;;;;;;;;;;;;7.50;81.29;99834.61;106304;1256;70609;-84
2024/02/09 18:54:14;;;;;;;;;;;;;;;7.39;82.12;99827.23;106059;1256;74714;-89
2024/02/09 18:56:48;;;;;;;;;;;;;;;7.30;83.04;99828.43;106279;1258;60543;-84
2024/02/09 18:59:16;;;;;;;;;;;;;;;7.20;83.70;99832.51;106438;1261;60806;-87
2024/02/09 19:01:50;;;;;;;;;;;;;;;7.13;84.31;99832.52;106132;1261;75311;-85
2024/02/09 19:04:24;;;;;;;;;;;;;;;7.18;84.27;99828.98;106422;1256;70621;-84
2024/02/09 19:06:54;;;;;;;;;;;;;;;7.17;84.67;99827.63;106190;1259;73981;-84
2024/02/09 19:09:21;;;;;;;;;;;;;;;7.09;84.70;99834.35;105914;1256;63142;-85
2024/02/09 19:11:56;;;;;;;;;;;;;;;7.00;85.93;99843.21;106371;1256;60790;-86
2024/02/09 19:14:30;;;;;;;;;;;;;;;7.10;85.26;99850.23;107742;1256;76401;-84
2024/02/09 19:16:58;;;;;;;;;;;;;;;7.11;85.35;99853.27;106065;1257;69942;-86
2024/02/09 19:19:32;;;;;;;;;;;;;;;7.04;85.76;99852.92;106282;1256;75475;-86
2024/02/09 19:22:07;;;;;;;;;;;;;;;7.00;85.75;99851.19;106104;1261;60419;-88
2024/02/09 19:24:41;;;;;;;;;;;;;;;6.96;86.16;99854.27;106289;1257;60557;-84
2024/02/09 19:27:09;;;;;;;;;;;;;;;7.10;85.26;99858.70;106273;1262;76496;-87
2024/02/09 19:29:44;;;;;;;;;;;;;;;7.03;85.61;99864.23;106295;1261;70651;-86
2024/02/09 19:32:18;;;;;;;;;;;;;;;6.90;86.42;99861.06;106565;1256;73875;-86
2024/02/09 19:34:52;;;;;;;;;;;;;;;6.84;87.36;99862.90;106358;1259;61368;-86
2024/02/09 19:37:21;;;;;;;;;;;;;;;6.80;87.71;99858.87;106294;1256;62136;-86
2024/02/09 19:39:55;;;;;;;;;;;;;;;6.78;88.05;99856.42;106289;1261;76482;-84
2024/02/09 19:42:28;;;;;;;;;;;;;;;6.86;87.49;99860.41;106219;1257;69360;-84
2024/02/09 19:45:02;;;;;;;;;;;;;;;6.70;88.44;99862.34;106358;1256;73603;-86
2024/02/09 19:47:30;;;;;;;;;;;;;;;6.77;88.48;99862.73;106064;1261;61714;-86
2024/02/09 19:50:05;;;;;;;;;;;;;;;6.91;87.48;99861.39;106219;1256;60319;-86
2024/02/09 19:52:39;;;;;;;;;;;;;;;6.94;86.90;99859.01;106379;1257;75948;-84
2024/02/09 19:55:07;;;;;;;;;;;;;;;6.81;87.48;99858.12;106354;1256;69904;-83
2024/02/09 19:57:42;;;;;;;;;;;;;;;6.84;87.43;99858.77;106032;1257;74292;-86
2024/02/09 20:00:16;;;;;;;;;;;;;;;6.73;88.04;99852.67;106370;1259;60428;-86
2024/02/09 20:02:50;;;;;;;;;;;;;;;6.80;87.71;99847.41;106518;1260;60420;-84
2024/02/09 20:05:28;;;;;;;;;;;;;;;6.78;87.65;99855.02;106217;1261;75822;-86
2024/02/09 20:08:04;;;;;;;;;;;;;;;6.74;87.79;99862.02;106121;1259;69941;-86
2024/02/09 20:10:38;;;;;;;;;;;;;;;6.71;87.98;99858.33;106275;1256;75228;-85
2024/02/09 20:13:14;;;;;;;;;;;;;;;6.74;87.88;99851.70;106232;1257;60576;-85
2024/02/09 20:15:42;;;;;;;;;;;;;;;6.79;87.75;99854.20;106413;1256;60871;-86
2024/02/09 20:18:15;;;;;;;;;;;;;;;6.81;87.86;99860.52;106309;1257;73493;-86
2024/02/09 20:20:50;;;;;;;;;;;;;;;6.85;87.47;99864.20;106220;1258;69844;-88
2024/02/09 20:23:24;;;;;;;;;;;;;;;6.84;87.42;99866.01;106371;1260;74664;-85
2024/02/09 20:25:52;;;;;;;;;;;;;;;6.80;87.66;99865.92;106258;1256;60827;-85
2024/02/09 20:28:27;;;;;;;;;;;;;;;6.78;87.47;99865.72;106349;1256;60511;-84
2024/02/09 20:31:01;;;;;;;;;;;;;;;6.69;87.91;99864.55;106190;1256;74912;-85
2024/02/09 20:33:35;;;;;;;;;;;;;;;6.72;88.25;99863.95;106333;1260;68450;-85
2024/02/09 20:36:03;;;;;;;;;;;;;;;6.78;87.48;99867.57;106565;1256;75265;-86
2024/02/09 20:38:37;;;;;;;;;;;;;;;6.80;87.82;99864.03;106104;1262;60376;-83
2024/02/09 20:41:17;;;;;;;;;;;;;;;6.74;87.85;99863.27;106296;1261;62109;-84
2024/02/09 20:43:52;;;;;;;;;;;;;;;6.69;88.09;99860.00;106028;1256;73931;-84
2024/02/09 20:46:25;;;;;;;;;;;;;;;6.63;88.83;99865.03;106503;1256;69542;-84
2024/02/09 20:48:59;;;;;;;;;;;;;;;6.66;89.05;99866.01;106190;1259;73653;-86
2024/02/09 20:51:33;;;;;;;;;;;;;;;6.64;89.52;99868.83;106148;1256;62299;-86
2024/02/09 20:54:03;;;;;;;;;;;;;;;6.69;89.60;99870.52;106455;1260;61812;-87
2024/02/09 20:56:31;;;;;;;;;;;;;;;6.71;89.30;99873.68;106606;1256;76377;-87
2024/02/09 20:59:05;;;;;;;;;;;;;;;6.82;88.69;99872.08;106308;1259;69811;-85
2024/02/09 21:01:40;;;;;;;;;;;;;;;6.89;88.21;99871.45;106355;1258;73418;-87
2024/02/09 21:04:10;;;;;;;;;;;;;;;6.86;88.26;99871.60;106287;1260;61488;-85
2024/02/09 21:06:44;;;;;;;;;;;;;;;6.91;88.32;99865.79;106332;1256;60860;-85
2024/02/09 21:09:18;;;;;;;;;;;;;;;6.89;88.48;99866.06;106208;1262;73768;-85
2024/02/09 21:11:52;;;;;;;;;;;;;;;6.86;88.36;99870.17;106325;1256;70144;-85
2024/02/09 21:14:20;;;;;;;;;;;;;;;6.93;88.33;99864.55;106449;1262;74854;-83
2024/02/09 21:16:53;;;;;;;;;;;;;;;6.92;88.03;99868.02;106193;1259;61000;-86
2024/02/09 21:19:29;;;;;;;;;;;;;;;6.87;88.71;99862.92;106802;1260;60003;-86
2024/02/09 21:22:07;;;;;;;;;;;;;;;7.02;88.05;99867.44;106252;1256;75101;-86
2024/02/09 21:24:35;;;;;;;;;;;;;;;7.10;87.49;99870.16;106361;1257;68851;-85
2024/02/09 21:27:10;;;;;;;;;;;;;;;7.04;87.72;99871.57;106191;1256;73969;-86
2024/02/09 21:29:43;;;;;;;;;;;;;;;6.82;89.48;99869.73;106134;1256;60890;-86
2024/02/09 21:32:18;;;;;;;;;;;;;;;6.79;90.09;99861.27;106389;1256;60350;-86
2024/02/09 21:34:47;;;;;;;;;;;;;;;6.86;90.17;99861.05;106606;1259;73790;-85
2024/02/09 21:37:22;;;;;;;;;;;;;;;6.95;89.70;99856.73;106399;1259;69858;-86
2024/02/09 21:39:58;;;;;;;;;;;;;;;7.01;89.06;99855.21;106644;1262;71765;-86
2024/02/09 21:42:32;;;;;;;;;;;;;;;6.99;89.26;99854.84;106386;1262;60344;-86
2024/02/09 21:45:04;;;;;;;;;;;;;;;6.99;89.48;99855.27;106291;1257;60370;-87
2024/02/09 21:47:35;;;;;;;;;;;;;;;7.07;89.02;99846.25;106227;1262;73828;-85
2024/02/09 21:50:09;;;;;;;;;;;;;;;7.12;88.15;99840.98;106381;1259;68597;-88
2024/02/09 21:52:44;;;;;;;;;;;;;;;7.11;87.91;99841.14;106064;1261;72474;-84
2024/02/09 21:55:13;;;;;;;;;;;;;;;7.04;88.48;99838.36;106349;1256;60441;-87
2024/02/09 21:57:48;;;;;;;;;;;;;;;7.04;88.74;99842.23;106392;1262;60416;-86
2024/02/09 22:00:24;;;;;;;;;;;;;;;7.15;88.01;99838.45;106186;1259;74154;-86
2024/02/09 22:02:58;;;;;;;;;;;;;;;7.12;88.23;99838.81;106553;1257;67414;-86
2024/02/09 22:05:27;;;;;;;;;;;;;;;7.07;88.97;99834.35;106031;1263;72664;-85
2024/02/09 22:08:01;;;;;;;;;;;;;;;7.17;88.04;99828.80;107322;1260;60449;-87
2024/02/09 22:10:37;;;;;;;;;;;;;;;7.17;87.97;99828.44;106122;1260;258818;-90
2024/02/09 22:13:21;;;;;;;;;;;;;;;7.22;87.74;99821.37;106184;1258;72617;-91
2024/02/09 22:16:01;;;;;;;;;;;;;;;7.29;87.11;99819.35;106509;1262;66188;-87
2024/02/09 22:18:41;;;;;;;;;;;;;;;7.20;87.62;99816.48;106241;1261;72592;-89
2024/02/09 22:21:21;;;;;;;;;;;;;;;7.25;86.75;99813.16;106720;1261;59678;-85
2024/02/09 22:24:03;;;;;;;;;;;;;;;7.18;86.86;99814.37;106694;1256;60574;-90
2024/02/09 22:26:42;;;;;;;;;;;;;;;7.24;86.49;99813.98;106532;1261;73794;-91
2024/02/09 22:29:22;;;;;;;;;;;;;;;7.29;85.79;99809.52;106307;1260;68321;-90
2024/02/09 22:32:03;;;;;;;;;;;;;;;7.24;86.24;99807.02;106261;1262;72734;-90
2024/02/09 22:34:44;;;;;;;;;;;;;;;7.20;86.67;99802.08;106119;1256;60780;-90
2024/02/09 22:37:25;;;;;;;;;;;;;;;7.22;86.86;99799.03;107000;1257;60540;-91
2024/02/09 22:40:11;;;;;;;;;;;;;;;7.17;86.94;99798.82;106115;1260;73861;-88
2024/02/09 22:42:53;;;;;;;;;;;;;;;7.07;87.60;99788.23;106205;1262;68367;-90
2024/02/09 22:45:33;;;;;;;;;;;;;;;7.06;87.33;99778.23;106292;1256;71816;-91
2024/02/09 22:48:16;;;;;;;;;;;;;;;7.05;87.59;99780.73;106340;1260;60516;-90
2024/02/09 22:50:56;;;;;;;;;;;;;;;6.94;88.53;99781.33;106341;1261;61258;-90
2024/02/09 22:53:36;;;;;;;;;;;;;;;6.91;88.72;99773.72;106398;1257;72960;-86
2024/02/09 22:56:17;;;;;;;;;;;;;;;6.96;88.50;99775.61;106409;1260;67178;-91
2024/02/09 22:58:57;;;;;;;;;;;;;;;7.01;88.07;99772.52;106245;1261;72677;-87
2024/02/09 23:01:37;;;;;;;;;;;;;;;7.03;88.24;99779.42;106285;1260;59285;-90
2024/02/09 23:04:25;;;;;;;;;;;;;;;7.14;87.65;99789.41;105902;1257;60488;-89
2024/02/09 23:07:06;;;;;;;;;;;;;;;7.18;87.21;99789.48;106330;1257;73784;-89
2024/02/09 23:09:46;;;;;;;;;;;;;;;7.19;87.08;99780.16;106289;1262;68391;-90
2024/02/09 23:12:26;;;;;;;;;;;;;;;7.26;86.33;99781.36;106246;1260;72669;-86
2024/02/09 23:15:06;;;;;;;;;;;;;;;7.29;85.96;99779.17;106138;1259;60636;-89
2024/02/09 23:17:47;;;;;;;;;;;;;;;7.27;85.95;99778.36;106171;1256;60569;-86
2024/02/09 23:20:29;;;;;;;;;;;;;;;7.27;85.76;99775.49;106970;1257;71994;-89
2024/02/09 23:23:11;;;;;;;;;;;;;;;7.29;85.85;99773.42;106064;1262;68360;-89
2024/02/09 23:25:51;;;;;;;;;;;;;;;7.37;85.18;99767.86;106119;1262;72597;-88
2024/02/09 23:28:32;;;;;;;;;;;;;;;7.36;84.97;99769.49;106271;1262;60454;-90
2024/02/09 23:31:12;;;;;;;;;;;;;;;7.43;84.80;99768.51;105902;1260;60442;-89
2024/02/09 23:33:46;;;;;;;;;;;;;;;7.46;84.24;99770.08;106213;1262;72603;-90
2024/02/09 23:36:33;;;;;;;;;;;;;;;7.43;84.65;99772.41;106294;1260;67495;-88
2024/02/09 23:39:13;;;;;;;;;;;;;;;7.35;85.18;99777.88;105990;1258;73219;-87
2024/02/09 23:41:47;;;;;;;;;;;;;;;7.34;85.48;99780.86;106136;1259;60885;-87
2024/02/09 23:44:23;;;;;;;;;;;;;;;7.38;85.48;99783.31;106125;1258;60889;-87
2024/02/09 23:47:04;;;;;;;;;;;;;;;7.44;84.94;99778.00;106704;1260;71569;-88
2024/02/09 23:49:45;;;;;;;;;;;;;;;7.49;84.08;99782.09;106178;1262;67127;-87
2024/02/09 23:52:14;;;;;;;;;;;;;;;7.40;84.96;99782.92;106149;1262;72616;-87
2024/02/09 23:54:54;;;;;;;;;;;;;;;7.41;84.82;99780.69;106160;1263;60605;-87
2024/02/09 23:57:34;;;;;;;;;;;;;;;7.44;84.79;99777.48;106153;1257;60509;-88
